Latest Weather Observations for CFS Mobile C

IDS60801

Issued at 2:31 pm CST Wednesday 28 September 2016 (issued every 30 minutes, with the page automatically refreshed every 10 minutes)

About weather observations | Map of weather stations | Latest weather observations for SA | Other Formats
Station Details ID: 250036 Name: PORTABLE CFSC Lat: -34.95 Lon: 138.52 Height: 2.0 m
Data from the previous 72 hours. | See also: Recent months for locations in South Australia
Date/Time
CST
Temp
°C
App
Temp
°C
Dew
Point
°C
Rel
Hum
%
Delta-T
°C
Wind Press
QNH
hPa
Press
MSL
hPa
Rain since
9am
mm
Dir  Spd
km/h
Gust
km/h
Spd
kts
Gust
kts
28/02:20pm 15.8 7.8 10.6 71 2.8 NE 43 61 23 33 - - 13.8
28/02:10pm 15.1 8.2 10.4 73 2.5 NNE 37 50 20 27 - - 13.8
28/02:00pm 14.2 7.2 9.9 75 2.2 NNE 37 54 20 29 - - 13.8
28/01:50pm 14.3 7.0 10.3 77 2.1 NNE 39 56 21 30 - - 13.8
28/01:40pm 13.4 8.3 10.5 82 1.5 NE 28 41 15 22 - - 13.8
28/01:30pm 12.1 6.9 10.1 87 1.0 NE 28 37 15 20 - - 13.8
28/01:20pm 12.2 7.0 10.1 87 1.1 NE 28 43 15 23 - - 13.4
28/01:10pm 11.8 7.7 10.0 89 0.9 NNE 22 33 12 18 - - 13.0
28/01:00pm 11.8 7.3 9.9 88 1.0 NE 24 35 13 19 - - 11.6
28/12:50pm 11.6 7.4 9.8 89 0.9 NE 22 32 12 17 - - 11.2
28/12:40pm 11.4 7.6 9.8 90 0.8 NNE 20 30 11 16 - - 10.0
28/12:30pm 11.3 7.4 9.6 89 0.9 NNE 20 35 11 19 - - 8.4
28/12:20pm 11.4 7.1 9.3 87 1.1 NNE 22 35 12 19 - - 6.4
28/12:10pm 11.8 7.1 9.1 83 1.4 N 24 37 13 20 - - 4.6
28/12:00pm 12.5 7.3 8.9 79 1.8 N 26 46 14 25 - - 3.0
28/11:50am 13.0 9.1 8.7 75 2.2 N 19 32 10 17 - - 1.6
28/11:40am 14.0 9.4 8.0 67 3.0 N 22 46 12 25 - - 0.8
28/11:30am 15.2 10.0 7.3 59 3.9 N 24 46 13 25 - - 0.0
28/11:20am 17.3 11.2 4.7 43 6.0 N 26 46 14 25 - - 0.0
28/11:10am 18.2 10.3 2.5 35 7.2 NNE 33 52 18 28 - - 0.0
28/11:00am 18.5 10.9 3.0 35 7.2 NNE 32 50 17 27 - - 0.0
28/10:50am 18.7 10.6 3.3 36 7.2 NNE 35 54 19 29 - - 0.0
28/10:40am 19.0 10.8 2.8 34 7.5 NNE 35 50 19 27 - - 0.0
28/10:30am 19.3 11.5 2.8 33 7.7 NNE 33 54 18 29 - - 0.0
28/10:20am 19.3 11.1 2.9 33 7.6 NNE 35 48 19 26 - - 0.0
28/10:10am 19.6 12.2 3.8 35 7.5 NNE 32 44 17 24 - - 0.0
28/10:00am 19.5 11.7 2.9 33 7.7 NNE 33 48 18 26 - - 0.0
28/09:50am 19.5 10.9 2.7 32 7.8 NNE 37 54 20 29 - - 0.0
28/09:40am 19.5 11.3 2.7 32 7.8 NNE 35 54 19 29 - - 0.0
28/09:30am 19.5 11.0 3.2 34 7.6 NNE 37 52 20 28 - - 0.0
28/09:20am 19.5 11.0 3.3 34 7.6 NNE 37 50 20 27 - - 0.0
28/09:10am 19.2 11.1 3.3 35 7.4 NNE 35 50 19 27 - - 0.0
28/09:00am 18.8 11.7 3.3 35 7.2 NNE 30 44 16 24 - - 0.0
28/08:50am 18.6 12.5 4.9 40 6.6 NNE 26 41 14 22 - - 0.0
28/08:40am 17.7 11.1 4.4 41 6.3 NNE 28 41 15 22 - - 0.0
28/08:30am 17.4 11.6 4.6 42 6.1 NNE 24 39 13 21 - - 0.0
28/08:20am 17.0 11.3 4.8 44 5.8 NNE 24 33 13 18 - - 0.0
28/08:10am 16.7 11.0 4.8 45 5.6 NNE 24 35 13 19 - - 0.0
28/08:00am 16.2 10.4 4.5 45 5.5 NNE 24 35 13 19 - - 0.0
28/07:50am 15.9 10.2 4.8 47 5.2 NNE 24 37 13 20 - - 0.0
28/07:40am 15.6 10.3 4.8 48 5.1 NNE 22 33 12 18 - - 0.0
28/07:30am 15.3 10.4 5.1 50 4.8 NNE 20 30 11 16 - - 0.0
28/07:20am 14.8 9.9 5.2 52 4.5 NNE 20 30 11 16 - - 0.0
28/07:10am 14.3 9.6 5.2 54 4.3 NNE 19 28 10 15 - - 0.0
28/07:00am 13.7 9.4 5.4 57 3.9 NNE 17 24 9 13 - - 0.0
28/06:50am 13.4 8.7 5.2 57 3.8 NNE 19 28 10 15 - - 0.0
28/06:40am 13.0 8.3 5.2 59 3.6 NNE 19 26 10 14 - - 0.0
28/06:30am 12.7 7.8 5.2 60 3.5 NNE 20 28 11 15 - - 0.0
28/06:20am 12.3 7.6 5.2 62 3.3 NNE 19 28 10 15 - - 0.0
28/06:10am 12.1 7.8 5.2 62 3.2 NNE 17 24 9 13 - - 0.0
28/06:00am 11.7 7.8 5.2 64 3.0 NNE 15 26 8 14 - - 0.0
28/05:50am 11.5 7.9 5.1 65 2.9 NNE 13 20 7 11 - - 0.0
28/05:40am 11.3 8.1 4.9 65 2.9 NNE 11 17 6 9 - - 0.0
28/05:30am 11.0 7.8 4.9 66 2.8 NNE 11 17 6 9 - - 0.0
28/05:20am 11.0 7.4 4.8 65 2.8 NNE 13 19 7 10 - - 0.0
28/05:10am 11.1 7.8 4.7 64 2.9 NNE 11 19 6 10 - - 0.0
28/05:00am 11.0 7.7 4.8 65 2.8 NNE 11 17 6 9 - - 0.0
28/04:50am 11.4 7.7 4.6 63 3.1 NNE 13 19 7 10 - - 0.0
28/04:40am 11.0 7.7 4.5 64 2.9 NNE 11 17 6 9 - - 0.0
28/04:30am 11.1 7.8 4.3 63 3.0 NNE 11 19 6 10 - - 0.0
28/04:20am 10.8 7.5 4.3 64 2.9 NNE 11 19 6 10 - - 0.0
28/04:10am 10.8 7.1 4.2 64 2.9 NNE 13 20 7 11 - - 0.0
28/04:00am 10.8 6.7 4.1 63 3.0 NNE 15 20 8 11 - - 0.0
28/03:50am 11.2 7.0 4.0 61 3.2 NNE 15 22 8 12 - - 0.0
28/03:40am 11.2 7.0 4.0 61 3.2 NNE 15 24 8 13 - - 0.0
28/03:30am 11.0 7.2 4.1 62 3.1 NNE 13 17 7 9 - - 0.0
28/03:20am 10.4 6.7 4.4 66 2.7 NNE 13 19 7 10 - - 0.0
28/03:10am 9.9 6.6 4.5 69 2.4 NNE 11 15 6 8 - - 0.0
28/03:00am 9.9 6.6 4.6 69 2.4 NNE 11 15 6 8 - - 0.0
28/02:50am 9.8 6.5 4.6 70 2.3 NNE 11 13 6 7 - - 0.0
28/02:40am 9.9 7.0 4.6 69 2.4 NNE 9 11 5 6 - - 0.0
28/02:30am 9.5 7.0 4.6 71 2.2 NNE 7 13 4 7 - - 0.0
28/02:20am 9.8 7.3 4.7 70 2.3 NNE 7 11 4 6 - - 0.0
28/02:10am 9.9 7.5 5.1 72 2.2 NNE 7 11 4 6 - - 0.0
28/02:00am 8.5 6.2 4.9 78 1.6 NNE 6 9 3 5 - - 0.0
28/01:50am 8.3 5.8 4.5 77 1.7 NE 7 9 4 5 - - 0.0
28/01:40am 8.6 6.1 4.7 76 1.7 NE 7 9 4 5 - - 0.0
28/01:30am 8.9 6.0 4.9 76 1.8 NE 9 11 5 6 - - 0.0
28/01:20am 8.5 5.6 4.9 78 1.6 NE 9 11 5 6 - - 0.0
28/01:10am 8.3 5.4 4.8 78 1.5 NE 9 13 5 7 - - 0.0
28/01:00am 8.4 5.8 4.3 75 1.8 NNE 7 11 4 6 - - 0.0
28/12:50am 9.4 6.9 4.7 72 2.1 NNE 7 13 4 7 - - 0.0
28/12:40am 9.4 8.2 4.8 73 2.1 CALM 0 0 0 0 - - 0.0
28/12:30am 9.5 8.3 4.8 72 2.1 CALM 0 0 0 0 - - 0.0
28/12:20am 9.6 8.4 4.8 72 2.1 CALM 0 4 0 2 - - 0.0
28/12:10am 9.4 8.3 4.9 73 2.0 CALM 0 0 0 0 - - 0.0
28/12:00am 9.6 8.5 4.9 72 2.1 CALM 0 0 0 0 - - 0.0
 
Date/Time
CST
Temp
°C
App
Temp
°C
Dew
Point
°C
Rel
Hum
%
Delta-T
°C
Wind Press
QNH
hPa
Press
MSL
hPa
Rain since
9am
mm
Dir  Spd
km/h
Gust
km/h
Spd
kts
Gust
kts
27/11:50pm 9.7 8.6 5.2 73 2.0 CALM 0 0 0 0 - - 0.0
27/11:40pm 9.3 8.2 5.1 75 1.9 CALM 0 0 0 0 - - 0.0
27/11:30pm 9.0 7.9 4.9 75 1.8 CALM 0 0 0 0 - - 0.0
27/11:20pm 8.8 7.7 4.9 76 1.7 CALM 0 0 0 0 - - 0.0
27/11:10pm 8.8 7.7 4.9 76 1.7 CALM 0 0 0 0 - - 0.0
27/11:00pm 9.1 8.0 4.9 75 1.9 CALM 0 0 0 0 - - 0.0
27/10:50pm 9.8 8.3 5.2 73 2.1 NNE 2 6 1 3 - - 0.0
27/10:40pm 10.0 8.2 5.4 73 2.1 NNE 4 6 2 3 - - 0.0
27/10:30pm 9.9 7.7 5.5 74 2.0 NE 6 7 3 4 - - 0.0
27/10:20pm 9.6 7.4 5.4 75 1.9 NE 6 9 3 5 - - 0.0
27/10:10pm 9.6 7.2 5.4 75 1.9 NE 7 9 4 5 - - 0.0
27/10:00pm 10.1 9.1 5.5 73 2.1 CALM 0 9 0 5 - - 0.0
27/09:50pm 10.0 8.2 5.3 72 2.1 NE 4 7 2 4 - - 0.0
27/09:40pm 10.3 9.3 5.5 72 2.2 CALM 0 0 0 0 - - 0.0
27/09:30pm 10.5 9.5 5.6 71 2.2 CALM 0 0 0 0 - - 0.0
27/09:20pm 10.5 9.5 5.5 71 2.3 CALM 0 4 0 2 - - 0.0
27/09:10pm 10.8 8.7 5.8 71 2.3 ENE 6 7 3 4 - - 0.0
27/09:00pm 10.8 8.5 5.5 70 2.4 ENE 7 7 4 4 - - 0.0
27/08:50pm 11.1 9.0 5.7 69 2.5 ENE 6 7 3 4 - - 0.0
27/08:40pm 11.4 10.0 5.6 67 2.7 E 2 7 1 4 - - 0.0
27/08:30pm 11.7 10.7 5.5 66 2.9 CALM 0 0 0 0 - - 0.0
27/08:20pm 11.7 10.7 5.6 66 2.8 CALM 0 0 0 0 - - 0.0
27/08:10pm 12.2 11.2 5.5 63 3.1 CALM 0 0 0 0 - - 0.0
27/08:00pm 12.4 11.4 5.7 63 3.1 CALM 0 0 0 0 - - 0.0
27/07:50pm 12.4 11.4 5.6 63 3.2 CALM 0 0 0 0 - - 0.0
27/07:40pm 12.7 11.7 5.8 63 3.2 CALM 0 2 0 1 - - 0.0
27/07:30pm 13.0 11.6 5.4 60 3.5 NW 2 6 1 3 - - 0.0
27/07:20pm 13.1 11.3 5.3 59 3.6 N 4 6 2 3 - - 0.0
27/07:10pm 13.2 11.4 5.6 60 3.6 N 4 6 2 3 - - 0.0
27/07:00pm 13.4 11.6 5.6 59 3.7 N 4 6 2 3 - - 0.0
27/06:50pm 13.7 11.9 5.5 57 3.9 NNW 4 7 2 4 - - 0.0
27/06:40pm 13.7 11.5 5.5 57 3.9 NW 6 7 3 4 - - 0.0
27/06:30pm 13.9 11.7 5.3 56 4.0 NW 6 9 3 5 - - 0.0
27/06:20pm 14.1 11.7 5.1 54 4.2 NW 7 13 4 7 - - 0.0
27/06:10pm 14.2 11.8 5.4 55 4.1 NW 7 11 4 6 - - 0.0
27/06:00pm 14.4 11.6 5.3 54 4.3 NW 9 15 5 8 - - 0.0
27/05:50pm 14.7 12.0 5.5 54 4.4 NW 9 15 5 8 - - 0.0
27/05:40pm 14.9 12.1 5.1 52 4.6 NW 9 15 5 8 - - 0.0
27/05:30pm 15.1 12.4 5.6 53 4.5 NW 9 15 5 8 - - 0.0
27/05:20pm 15.1 12.0 5.4 52 4.6 WNW 11 17 6 9 - - 0.0
27/05:10pm 15.3 12.7 6.0 54 4.5 WNW 9 17 5 9 - - 0.0
27/05:00pm 15.2 12.1 5.6 52 4.6 WNW 11 17 6 9 - - 0.0
27/04:50pm 15.4 12.2 4.9 49 4.9 NW 11 17 6 9 - - 0.0
27/04:40pm 15.5 12.7 5.1 50 4.9 WNW 9 17 5 9 - - 0.0
27/04:30pm 15.7 12.8 4.8 48 5.1 WNW 9 19 5 10 - - 0.0
27/04:20pm 15.4 12.2 5.1 50 4.9 NW 11 19 6 10 - - 0.0
27/04:10pm 15.7 12.7 5.8 51 4.8 WNW 11 19 6 10 - - 0.0
27/04:00pm 15.8 12.8 5.8 51 4.8 WNW 11 17 6 9 - - 0.0
27/03:50pm 15.9 13.0 6.5 53 4.6 NW 11 22 6 12 - - 0.0
27/03:40pm 15.9 13.0 6.5 53 4.6 NW 11 20 6 11 - - 0.0
27/03:30pm 15.8 12.5 6.5 54 4.5 WNW 13 22 7 12 - - 0.0
27/03:20pm 15.6 12.3 6.4 54 4.5 NW 13 24 7 13 - - 0.0
27/03:10pm 15.8 12.9 6.6 54 4.5 NW 11 20 6 11 - - 0.0
27/03:00pm 15.7 12.5 6.8 55 4.4 WNW 13 24 7 13 - - 0.0
27/02:50pm 16.0 12.9 7.1 55 4.4 NW 13 24 7 13 - - 0.0
27/02:40pm 16.1 12.9 6.9 54 4.5 NW 13 20 7 11 - - 0.0
27/01:40pm 15.5 12.3 6.8 56 4.3 NW 13 22 7 12 - - 0.0
27/01:30pm 15.3 12.1 6.9 57 4.1 WNW 13 22 7 12 - - 0.0
27/01:20pm 15.8 12.3 7.4 57 4.2 NW 15 22 8 12 - - 0.0
27/01:10pm 15.5 11.9 6.7 55 4.3 NW 15 28 8 15 - - 0.0
27/01:00pm 15.6 12.1 7.4 58 4.1 WNW 15 26 8 14 - - 0.0
27/12:50pm 15.6 12.1 7.2 57 4.1 WNW 15 26 8 14 - - 0.0
27/12:40pm 15.7 12.2 7.3 57 4.2 NW 15 24 8 13 - - 0.0
27/12:30pm 15.4 12.0 7.7 60 3.8 NW 15 22 8 12 - - 0.0
27/12:20pm 15.5 12.1 7.7 59 3.9 WNW 15 24 8 13 - - 0.0
27/12:10pm 15.3 11.6 8.0 61 3.7 WNW 17 24 9 13 - - 0.0
27/12:00pm 15.4 12.0 7.8 60 3.8 WNW 15 26 8 14 - - 0.0
27/11:50am 15.2 11.4 7.7 61 3.7 WNW 17 26 9 14 - - 0.0
27/11:40am 15.8 12.9 8.1 60 3.9 WNW 13 24 7 13 - - 0.0
27/11:30am 15.4 11.6 7.7 60 3.8 WNW 17 26 9 14 - - 0.0
27/11:20am 15.0 11.2 7.6 61 3.7 WNW 17 30 9 16 - - 0.0
27/11:10am 15.2 11.9 7.9 61 3.6 WNW 15 22 8 12 - - 0.0
27/11:00am 14.8 11.3 7.4 61 3.6 WNW 15 24 8 13 - - 0.0
27/10:50am 15.0 12.1 8.0 63 3.5 WNW 13 22 7 12 - - 0.0
27/10:40am 14.6 11.0 6.7 59 3.8 WNW 15 24 8 13 - - 0.0
27/10:30am 14.8 11.4 7.6 62 3.6 WNW 15 26 8 14 - - 0.0
27/10:20am 14.6 11.5 7.2 61 3.6 WNW 13 22 7 12 - - 0.0
27/10:10am 14.7 11.2 7.0 60 3.8 W 15 24 8 13 - - 0.0
27/10:00am 14.3 10.8 7.1 62 3.5 W 15 24 8 13 - - 0.0
27/09:50am 14.5 10.9 6.7 59 3.8 WNW 15 22 8 12 - - 0.0
27/09:40am 14.2 10.2 6.8 61 3.6 W 17 24 9 13 - - 0.0
27/09:30am 14.3 10.8 7.1 62 3.5 W 15 26 8 14 - - 0.0
27/09:20am 14.0 10.4 6.8 62 3.5 W 15 22 8 12 - - 0.0
27/09:10am 14.0 10.4 6.9 62 3.4 W 15 24 8 13 - - 0.0
27/09:00am 14.3 10.7 6.9 61 3.6 W 15 24 8 13 - - 0.0
27/08:50am 13.8 10.1 6.3 60 3.6 W 15 22 8 12 - - 0.0
27/08:40am 13.8 10.1 6.1 59 3.7 W 15 20 8 11 - - 0.0
27/08:30am 13.8 10.5 6.4 61 3.5 W 13 22 7 12 - - 0.0
27/08:20am 13.7 10.3 6.0 59 3.7 W 13 19 7 10 - - 0.0
27/08:10am 13.5 10.0 5.3 57 3.8 W 13 19 7 10 - - 0.0
27/08:00am 13.5 10.1 5.8 59 3.6 W 13 24 7 13 - - 0.0
27/07:50am 13.3 9.8 5.6 59 3.6 W 13 24 7 13 - - 0.0
27/07:40am 13.2 9.7 5.4 59 3.6 W 13 24 7 13 - - 0.0
27/07:30am 13.1 9.6 5.4 59 3.6 W 13 20 7 11 - - 0.0
27/07:20am 12.9 9.7 5.2 59 3.6 W 11 19 6 10 - - 0.0
27/07:10am 12.8 9.6 5.1 59 3.6 W 11 22 6 12 - - 0.0
27/07:00am 12.6 9.5 5.5 62 3.3 W 11 19 6 10 - - 0.0
27/06:50am 12.4 9.3 5.7 63 3.1 W 11 19 6 10 - - 0.0
27/06:40am 12.2 9.5 5.7 64 3.0 W 9 19 5 10 - - 0.0
27/06:30am 11.9 9.2 5.5 65 3.0 W 9 19 5 10 - - 0.0
27/06:20am 11.7 8.9 5.0 63 3.1 WSW 9 19 5 10 - - 0.0
27/06:10am 11.7 8.1 5.0 63 3.1 WSW 13 20 7 11 - - 0.0
27/06:00am 11.8 8.4 5.8 66 2.8 WSW 13 24 7 13 - - 0.0
27/05:50am 11.8 8.8 5.8 66 2.8 WSW 11 22 6 12 - - 0.0
27/05:40am 11.8 8.4 5.8 66 2.8 WSW 13 22 7 12 - - 0.0
27/05:30am 11.9 8.9 5.8 66 2.8 W 11 20 6 11 - - 0.0
27/05:20am 12.0 8.8 5.3 63 3.1 WSW 11 20 6 11 - - 0.0
27/05:10am 12.1 8.9 5.3 63 3.1 WSW 11 20 6 11 - - 0.0
27/05:00am 12.0 9.1 4.9 62 3.2 WSW 9 19 5 10 - - 0.0
27/04:50am 11.9 9.1 5.1 63 3.1 WSW 9 19 5 10 - - 0.0
27/04:40am 11.7 8.5 5.1 64 3.0 WSW 11 19 6 10 - - 0.0
27/04:30am 11.8 8.5 4.8 62 3.2 WSW 11 20 6 11 - - 0.0
27/04:20am 11.7 8.8 4.9 63 3.1 WSW 9 17 5 9 - - 0.0
27/04:10am 11.7 8.6 5.4 65 2.9 WSW 11 19 6 10 - - 0.0
27/04:00am 11.6 8.8 5.2 65 2.9 SW 9 17 5 9 - - 0.0
27/03:50am 11.7 8.5 5.2 64 3.0 SW 11 20 6 11 - - 0.0
27/03:40am 11.7 8.4 4.8 62 3.1 SW 11 24 6 13 - - 0.0
27/03:30am 11.7 8.4 4.6 62 3.2 SW 11 20 6 11 - - 0.0
27/03:20am 11.8 8.5 4.5 61 3.3 SW 11 20 6 11 - - 0.0
27/03:10am 11.7 8.5 4.9 63 3.1 SW 11 22 6 12 - - 0.0
27/03:00am 11.6 9.0 6.0 68 2.6 SW 9 19 5 10 - - 0.0
27/02:50am 11.7 8.3 6.0 68 2.7 SW 13 20 7 11 - - 0.0
27/02:40am 11.7 8.3 5.8 67 2.7 SW 13 24 7 13 - - 0.0
27/02:30am 11.8 8.3 5.6 66 2.9 SW 13 22 7 12 - - 0.0
27/02:20am 12.0 8.2 5.8 66 2.9 SW 15 24 8 13 - - 0.0
27/02:10am 11.9 7.6 5.1 63 3.1 SSW 17 24 9 13 - - 0.0
27/02:00am 11.9 7.1 4.8 62 3.2 SSW 19 30 10 16 - - 0.0
27/01:50am 11.7 7.8 5.5 66 2.9 SW 15 22 8 12 - - 0.0
27/01:40am 11.8 7.9 5.5 65 2.9 SW 15 26 8 14 - - 0.0
27/01:30am 11.5 7.7 5.9 68 2.6 WSW 15 33 8 18 - - 0.0
27/01:20am 11.6 7.2 6.5 71 2.4 SW 19 30 10 16 - - 0.0
27/01:10am 12.0 7.1 6.7 70 2.5 SSW 22 33 12 18 - - 0.0
27/01:00am 12.1 7.7 6.5 68 2.7 SSW 19 30 10 16 - - 0.0
27/12:50am 12.1 8.1 6.8 70 2.5 SSW 17 30 9 16 - - 0.0
27/12:40am 12.0 8.4 6.9 71 2.4 SW 15 26 8 14 - - 0.0
27/12:30am 11.5 9.2 7.3 75 2.0 SSW 9 17 5 9 - - 0.0
27/12:20am 11.4 7.8 6.9 74 2.1 SSW 15 24 8 13 - - 0.0
27/12:10am 11.4 7.3 6.3 71 2.4 SSW 17 32 9 17 - - 0.0
27/12:00am 11.5 6.5 6.6 72 2.3 SSW 22 35 12 19 - - 0.0
 
Date/Time
CST
Temp
°C
App
Temp
°C
Dew
Point
°C
Rel
Hum
%
Delta-T
°C
Wind Press
QNH
hPa
Press
MSL
hPa
Rain since
9am
mm
Dir  Spd
km/h
Gust
km/h
Spd
kts
Gust
kts
26/11:50pm 11.9 7.6 7.1 72 2.3 WSW 19 33 10 18 - - 0.0
26/11:40pm 12.1 8.2 7.2 72 2.4 WSW 17 30 9 16 - - 0.0
26/11:30pm 12.2 8.2 6.8 69 2.6 WSW 17 26 9 14 - - 0.0
26/11:20pm 12.3 8.7 6.7 68 2.7 WSW 15 28 8 15 - - 0.0
26/11:10pm 12.3 8.7 6.8 69 2.6 WSW 15 28 8 15 - - 0.0
26/11:00pm 12.4 8.5 6.9 69 2.6 WSW 17 30 9 16 - - 0.0
26/10:50pm 12.3 8.4 6.9 69 2.6 WSW 17 30 9 16 - - 0.0
26/10:40pm 12.4 8.4 6.7 68 2.7 WSW 17 30 9 16 - - 0.0
26/10:30pm 12.5 8.5 6.5 67 2.9 WSW 17 35 9 19 - - 0.0
26/10:20pm 12.4 8.5 7.0 69 2.6 WSW 17 30 9 16 - - 0.0
26/10:10pm 12.4 8.5 7.1 70 2.6 WSW 17 32 9 17 - - 0.0
26/10:00pm 12.3 8.0 6.8 69 2.6 WSW 19 37 10 20 - - 0.0
26/09:50pm 12.4 8.0 6.6 68 2.8 WSW 19 30 10 16 - - 0.0
26/09:40pm 12.4 8.4 6.7 68 2.7 WSW 17 32 9 17 - - 0.0
26/09:30pm 12.4 8.9 7.0 69 2.6 WSW 15 26 8 14 - - 0.0
26/09:20pm 12.3 8.3 6.5 67 2.8 WSW 17 26 9 14 - - 0.0
26/09:10pm 12.3 8.7 6.8 69 2.6 WSW 15 30 8 16 - - 0.0
26/09:00pm 12.3 8.3 6.7 68 2.7 WSW 17 30 9 16 - - 0.0
26/08:50pm 12.4 8.4 6.8 68 2.7 WSW 17 32 9 17 - - 0.0
26/08:40pm 12.4 8.4 6.7 68 2.7 WSW 17 32 9 17 - - 0.0
26/08:30pm 12.4 8.8 6.7 68 2.7 WSW 15 30 8 16 - - 0.0
26/08:20pm 12.3 8.7 6.6 68 2.7 WSW 15 30 8 16 - - 0.0
26/08:10pm 12.4 8.4 6.5 67 2.8 WSW 17 33 9 18 - - 0.0
26/08:00pm 12.3 8.6 6.1 66 2.9 WSW 15 28 8 15 - - 0.0
26/07:50pm 12.3 8.6 6.2 66 2.9 WSW 15 28 8 15 - - 0.0
26/07:40pm 12.4 8.3 6.4 67 2.8 WSW 17 30 9 16 - - 0.0
26/07:30pm 12.4 8.0 6.5 67 2.8 WSW 19 35 10 19 - - 0.0
26/07:20pm 12.5 8.0 6.1 65 3.0 WSW 19 33 10 18 - - 0.0
26/07:10pm 12.5 8.0 6.2 65 3.0 WSW 19 33 10 18 - - 0.0
26/07:00pm 12.5 8.1 6.5 67 2.9 WSW 19 33 10 18 - - 0.0
26/06:50pm 12.6 7.6 6.5 66 2.9 SW 22 37 12 20 - - 0.0
26/06:40pm 12.7 8.0 5.9 63 3.2 SW 20 33 11 18 - - 0.0
26/06:30pm 12.7 8.2 7.0 68 2.7 SW 20 33 11 18 - - 0.0
26/06:20pm 12.9 8.3 6.4 64 3.1 SW 20 33 11 18 - - 0.0
26/06:10pm 12.9 8.2 6.2 64 3.2 SW 20 35 11 19 - - 0.0
26/06:00pm 13.1 8.3 5.7 61 3.5 SW 20 35 11 19 - - 0.0
26/05:50pm 13.3 8.2 5.9 61 3.5 SW 22 37 12 20 - - 0.0
26/05:40pm 13.5 9.1 6.5 62 3.4 SW 19 41 10 22 - - 0.0
26/05:30pm 13.4 8.3 6.2 61 3.4 SW 22 39 12 21 - - 0.0
26/05:20pm 13.5 9.5 6.5 62 3.4 SW 17 32 9 17 - - 0.0
26/05:10pm 13.6 9.0 6.5 62 3.4 SW 20 33 11 18 - - 0.0
26/05:00pm 14.1 9.5 6.4 60 3.7 SW 20 35 11 19 - - 0.0
26/04:50pm 14.4 9.8 6.7 60 3.7 SW 20 35 11 19 - - 0.0
26/04:40pm 15.1 11.0 6.1 55 4.3 WSW 17 28 9 15 - - 0.0
26/04:20pm 15.4 11.1 5.1 50 4.9 WSW 17 33 9 18 - - 0.0
26/04:10pm 15.2 11.1 6.4 55 4.3 W 17 28 9 15 - - 0.0
26/04:00pm 15.4 11.2 5.5 51 4.7 W 17 30 9 16 - - 0.0
26/03:50pm 15.3 10.7 5.7 52 4.6 W 19 35 10 19 - - 0.0
26/03:40pm 15.3 10.5 5.8 53 4.5 W 20 35 11 19 - - 0.0
26/03:30pm 15.3 10.6 5.3 51 4.7 W 19 37 10 20 - - 0.0
26/03:20pm 15.3 10.0 5.2 51 4.8 W 22 37 12 20 - - 0.0
26/03:10pm 15.0 9.1 4.0 47 5.1 W 24 43 13 23 - - 0.0
26/03:00pm 15.5 9.9 3.6 45 5.4 W 22 41 12 22 - - 0.0
26/02:50pm 15.5 11.1 4.7 48 5.1 WSW 17 33 9 18 - - 0.0
26/02:40pm 15.4 12.4 7.5 59 3.9 SW 13 22 7 12 - - 0.0
26/02:30pm 15.3 11.9 7.6 60 3.8 SW 15 28 8 15 - - 0.0
26/02:20pm 14.8 10.9 7.0 59 3.8 SW 17 26 9 14 - - 0.0
26/02:10pm 15.4 11.2 7.4 59 4.0 SW 19 30 10 16 - - 0.0
26/02:00pm 15.3 11.1 7.4 59 3.9 SW 19 30 10 16 - - 0.0
26/01:50pm 15.2 11.0 7.4 59 3.9 SSW 19 30 10 16 - - 0.0
26/01:40pm 15.2 11.3 7.3 59 3.9 WSW 17 32 9 17 - - 0.0
26/01:30pm 15.8 12.3 7.0 56 4.3 WSW 15 28 8 15 - - 0.0
26/01:20pm 15.8 12.9 8.1 60 3.9 WSW 13 22 7 12 - - 0.0
26/01:10pm 15.9 12.5 7.6 58 4.1 WSW 15 22 8 12 - - 0.0
26/01:00pm 16.0 13.1 8.0 59 4.0 WSW 13 24 7 13 - - 0.0
26/12:50pm 16.7 13.8 8.3 57 4.3 WSW 13 22 7 12 - - 0.0
26/12:40pm 15.1 11.2 7.2 59 3.9 WSW 17 28 9 15 - - 0.0
26/12:30pm 15.1 11.7 7.7 61 3.7 SW 15 26 8 14 - - 0.0
26/12:20pm 15.2 11.8 7.8 61 3.7 WSW 15 28 8 15 - - 0.0
26/12:10pm 15.4 12.1 9.7 69 3.0 SW 17 26 9 14 - - 0.0
26/12:00pm 15.0 11.7 9.6 70 2.8 SW 17 26 9 14 - - 0.0
26/11:50am 14.3 10.9 9.0 70 2.7 SSW 17 30 9 16 - - 0.0
26/11:40am 14.6 10.7 9.3 70 2.7 SSW 20 30 11 16 - - 0.0
26/11:10am 15.6 12.0 8.2 61 3.7 W 17 28 9 15 - - 0.0
26/11:00am 15.9 11.8 7.9 59 4.0 W 19 30 10 16 - - 0.0

Other Formats:

Comma delimited format used in spreadsheet applications
http://www.bom.gov.au/fwo/IDS60801/IDS60801.99060.axf

JavaScript Object Notation format (JSON) in row-major order
http://www.bom.gov.au/fwo/IDS60801/IDS60801.99060.json